createdAt,value
2018-03-01T00:02:08.212Z,27.33
2018-03-01T00:04:35.659Z,25.93
2018-03-01T00:07:03.090Z,26.27
2018-03-01T00:09:31.275Z,27.13
2018-03-01T00:11:58.712Z,30.77
2018-03-01T00:14:26.152Z,26.33
2018-03-01T00:16:53.606Z,31.27
2018-03-01T00:19:21.031Z,27.23
2018-03-01T00:21:48.472Z,23.40
2018-03-01T00:24:16.672Z,28.17
2018-03-01T00:26:44.111Z,26.23
2018-03-01T00:29:11.560Z,28.17
2018-03-01T00:31:39.011Z,28.43
2018-03-01T00:34:06.463Z,24.67
2018-03-01T00:36:33.892Z,25.33
2018-03-01T00:39:01.436Z,26.83
2018-03-01T00:41:28.856Z,27.47
2018-03-01T00:43:56.296Z,28.20
2018-03-01T00:46:23.747Z,26.47
2018-03-01T00:48:51.160Z,26.90
2018-03-01T00:51:18.598Z,24.90
2018-03-01T00:53:46.031Z,23.80
2018-03-01T00:56:13.501Z,26.93
2018-03-01T00:58:40.952Z,30.83
2018-03-01T01:01:08.368Z,30.63
2018-03-01T01:03:35.804Z,17.77
2018-03-01T01:06:03.235Z,29.87
2018-03-01T01:08:30.695Z,30.90
2018-03-01T01:10:58.124Z,25.63
2018-03-01T01:13:25.579Z,28.27
2018-03-01T01:15:53.008Z,25.10
2018-03-01T01:18:20.439Z,24.40
2018-03-01T01:20:47.904Z,29.70
2018-03-01T01:23:15.350Z,26.13
2018-03-01T01:25:42.764Z,25.77
2018-03-01T01:28:10.212Z,26.97
2018-03-01T01:30:37.653Z,27.07
2018-03-01T01:33:05.153Z,27.53
2018-03-01T01:35:32.575Z,25.60
2018-03-01T01:38:00.017Z,28.43
2018-03-01T01:40:27.458Z,33.97
2018-03-01T01:42:54.885Z,28.23
2018-03-01T01:45:22.315Z,30.80
2018-03-01T01:47:49.759Z,23.23
2018-03-01T01:50:17.212Z,25.17
2018-03-01T01:52:44.636Z,25.63
2018-03-01T01:55:12.082Z,25.47
2018-03-01T01:57:39.519Z,28.47
2018-03-01T02:00:06.960Z,23.23
2018-03-01T02:02:34.412Z,28.00
2018-03-01T02:05:01.848Z,28.67
2018-03-01T02:07:29.260Z,26.63
2018-03-01T02:09:57.463Z,31.37
2018-03-01T02:12:24.904Z,26.70
2018-03-01T02:14:52.343Z,22.40
2018-03-01T02:17:19.788Z,25.50
2018-03-01T02:19:47.224Z,20.53
2018-03-01T02:22:14.667Z,26.97
2018-03-01T02:24:42.105Z,27.83
2018-03-01T02:27:09.556Z,27.73
2018-03-01T02:29:37.006Z,25.30
2018-03-01T02:32:04.456Z,24.87
2018-03-01T02:34:31.882Z,25.50
2018-03-01T02:36:59.307Z,27.00
2018-03-01T02:39:26.771Z,24.87
2018-03-01T02:41:54.192Z,29.60
2018-03-01T02:44:21.625Z,29.93
2018-03-01T02:46:49.065Z,28.03
2018-03-01T02:49:16.543Z,22.30
2018-03-01T02:51:43.977Z,29.67
2018-03-01T02:54:11.418Z,25.70
2018-03-01T02:56:38.861Z,25.50
2018-03-01T02:59:06.303Z,24.23
2018-03-01T03:01:33.744Z,27.33
2018-03-01T03:04:01.176Z,27.50
2018-03-01T03:06:28.620Z,26.20
2018-03-01T03:08:56.048Z,22.07
2018-03-01T03:11:23.492Z,27.57
2018-03-01T03:13:50.926Z,22.23
2018-03-01T03:16:18.390Z,26.57
2018-03-01T03:18:45.797Z,25.47
2018-03-01T03:21:13.234Z,29.87
2018-03-01T03:23:41.434Z,22.97
2018-03-01T03:26:08.868Z,22.40
2018-03-01T03:28:36.329Z,23.00
2018-03-01T03:31:03.750Z,27.13
2018-03-01T03:33:31.191Z,30.27
2018-03-01T03:35:58.637Z,24.70
2018-03-01T03:38:26.100Z,29.27
2018-03-01T03:40:53.532Z,27.00
2018-03-01T03:43:20.964Z,26.63
2018-03-01T03:45:48.508Z,29.37
2018-03-01T03:48:15.968Z,30.70
2018-03-01T03:50:43.424Z,25.10
2018-03-01T03:53:10.847Z,26.43
2018-03-01T03:55:38.276Z,29.57
2018-03-01T03:58:05.716Z,27.80
2018-03-01T04:00:33.677Z,25.50
2018-03-01T04:03:01.116Z,26.83
2018-03-01T04:05:28.557Z,28.03
2018-03-01T04:07:56.002Z,29.53
2018-03-01T04:10:23.453Z,29.17
2018-03-01T04:12:50.878Z,27.03
2018-03-01T04:15:18.308Z,24.87
2018-03-01T04:17:45.736Z,23.03
2018-03-01T04:20:13.189Z,26.20
2018-03-01T04:22:40.615Z,26.53
2018-03-01T04:25:08.056Z,25.10
2018-03-01T04:27:35.516Z,25.03
2018-03-01T04:30:02.958Z,31.97
2018-03-01T04:32:30.383Z,29.00
2018-03-01T04:34:57.824Z,27.37
2018-03-01T04:37:25.284Z,24.40
2018-03-01T04:39:52.711Z,25.17
2018-03-01T04:42:20.144Z,20.60
2018-03-01T04:44:47.605Z,24.93
2018-03-01T04:47:15.028Z,24.27
2018-03-01T04:49:42.488Z,25.10
2018-03-01T04:52:09.916Z,29.07
2018-03-01T04:54:37.352Z,27.03
2018-03-01T04:57:04.797Z,23.47
2018-03-01T04:59:33.001Z,23.70
2018-03-01T05:02:00.443Z,25.53
2018-03-01T05:04:27.880Z,27.90
2018-03-01T05:06:55.312Z,25.20
2018-03-01T05:09:22.748Z,29.57
2018-03-01T05:11:50.172Z,25.07
2018-03-01T05:14:17.636Z,25.87
2018-03-01T05:16:45.059Z,25.43
2018-03-01T05:19:12.488Z,29.97
2018-03-01T05:21:39.946Z,27.83
2018-03-01T05:24:07.385Z,29.13
2018-03-01T05:26:34.836Z,32.57
2018-03-01T05:29:02.272Z,24.03
2018-03-01T05:31:29.707Z,26.17
2018-03-01T05:33:57.152Z,26.70
2018-03-01T05:36:24.592Z,23.20
2018-03-01T05:38:52.052Z,21.70
2018-03-01T05:41:19.499Z,22.83
2018-03-01T05:43:46.940Z,20.03
2018-03-01T05:46:14.359Z,24.63
2018-03-01T05:48:41.813Z,24.23
2018-03-01T05:51:09.257Z,28.63
2018-03-01T05:53:36.712Z,25.37
2018-03-01T05:56:04.125Z,27.60
2018-03-01T05:58:31.577Z,27.60
2018-03-01T06:00:59.017Z,24.80
2018-03-01T06:03:26.487Z,29.77
2018-03-01T06:05:53.924Z,23.10
2018-03-01T06:08:21.371Z,26.77
2018-03-01T06:10:48.812Z,24.63
2018-03-01T06:13:16.236Z,21.30
2018-03-01T06:15:43.669Z,29.83
2018-03-01T06:18:11.097Z,26.00
2018-03-01T06:20:38.532Z,23.57
2018-03-01T06:23:05.955Z,27.57
2018-03-01T06:25:34.167Z,25.97
2018-03-01T06:28:01.600Z,25.77
2018-03-01T06:30:29.045Z,24.67
2018-03-01T06:32:56.505Z,23.07
2018-03-01T06:35:23.932Z,29.23
2018-03-01T06:37:51.380Z,20.57
2018-03-01T06:40:18.812Z,21.90
2018-03-01T06:42:46.247Z,22.73
2018-03-01T06:45:13.683Z,23.03
2018-03-01T06:47:41.128Z,22.60
2018-03-01T06:50:08.572Z,25.67
2018-03-01T06:52:36.021Z,27.90
2018-03-01T06:55:03.454Z,30.13
2018-03-01T06:57:30.888Z,25.07
2018-03-01T06:59:58.321Z,24.80
2018-03-01T07:02:25.764Z,28.27
2018-03-01T07:04:53.213Z,27.20
2018-03-01T07:07:20.662Z,26.77
2018-03-01T07:09:48.093Z,25.73
2018-03-01T07:12:15.531Z,29.43
2018-03-01T07:14:42.969Z,23.97
2018-03-01T07:17:10.385Z,22.17
2018-03-01T07:19:38.607Z,27.57
2018-03-01T07:22:06.020Z,26.63
2018-03-01T07:24:33.464Z,25.87
2018-03-01T07:27:00.896Z,28.00
2018-03-01T07:29:28.332Z,26.30
2018-03-01T07:31:55.769Z,24.17
2018-03-01T07:34:23.196Z,25.40
2018-03-01T07:36:51.416Z,27.77
2018-03-01T07:39:18.848Z,25.60
2018-03-01T07:41:46.285Z,27.07
2018-03-01T07:44:13.708Z,26.90
2018-03-01T07:46:41.148Z,28.07
2018-03-01T07:49:08.568Z,27.10
2018-03-01T07:51:36.021Z,23.47
2018-03-01T07:54:03.444Z,22.10
2018-03-01T07:56:31.652Z,27.23
2018-03-01T07:58:59.100Z,25.27
2018-03-01T08:01:26.544Z,28.30
2018-03-01T08:03:53.975Z,24.03
2018-03-01T08:06:21.402Z,26.47
2018-03-01T08:08:48.868Z,26.53
2018-03-01T08:11:16.326Z,26.73
2018-03-01T08:13:43.748Z,20.83
2018-03-01T08:16:11.172Z,25.87
2018-03-01T08:18:38.620Z,22.03
2018-03-01T08:21:06.049Z,22.57
2018-03-01T08:23:33.485Z,25.87
2018-03-01T08:26:00.918Z,28.73
2018-03-01T08:28:28.335Z,29.70
2018-03-01T08:30:56.543Z,26.00
2018-03-01T08:33:23.974Z,24.57
2018-03-01T08:35:51.421Z,25.83
2018-03-01T08:38:18.831Z,26.23
2018-03-01T08:40:47.041Z,29.53
2018-03-01T08:43:14.472Z,28.43
2018-03-01T08:45:41.900Z,22.27
2018-03-01T08:48:09.344Z,29.33
2018-03-01T08:50:36.775Z,27.37
2018-03-01T08:53:04.219Z,29.90
2018-03-01T08:55:31.665Z,26.00
2018-03-01T08:57:59.100Z,26.20
2018-03-01T09:00:26.524Z,25.87
2018-03-01T09:02:53.974Z,25.50
2018-03-01T09:05:21.408Z,28.07
2018-03-01T09:07:49.612Z,23.27
2018-03-01T09:10:17.048Z,31.10
2018-03-01T09:12:44.475Z,25.67
2018-03-01T09:15:11.914Z,28.97
2018-03-01T09:17:39.348Z,26.00
2018-03-01T09:20:06.784Z,25.17
2018-03-01T09:22:34.216Z,25.63
2018-03-01T09:25:02.409Z,26.33
2018-03-01T09:27:29.844Z,24.63
2018-03-01T09:29:57.280Z,28.03
2018-03-01T09:32:24.708Z,26.60
2018-03-01T09:34:52.148Z,25.40
2018-03-01T09:37:19.576Z,26.73
2018-03-01T09:39:47.768Z,30.07
2018-03-01T09:42:15.212Z,24.17
2018-03-01T09:44:42.692Z,28.03
2018-03-01T09:47:10.064Z,26.07
2018-03-01T09:49:37.508Z,28.40
2018-03-01T09:52:04.956Z,28.30
2018-03-01T09:54:32.400Z,25.07
2018-03-01T09:56:59.840Z,30.03
2018-03-01T09:59:27.264Z,30.07
2018-03-01T10:01:55.452Z,27.10
2018-03-01T10:04:22.931Z,26.03
2018-03-01T10:06:50.361Z,29.93
2018-03-01T10:09:17.784Z,28.37
2018-03-01T10:11:45.212Z,25.13
2018-03-01T10:14:12.668Z,27.23
2018-03-01T10:16:40.085Z,25.23
2018-03-01T10:19:07.532Z,28.57
2018-03-01T10:21:34.972Z,21.13
2018-03-01T10:24:02.411Z,27.23
2018-03-01T10:26:29.832Z,25.43
2018-03-01T10:28:58.021Z,25.40
2018-03-01T10:31:25.456Z,25.57
2018-03-01T10:33:52.900Z,24.47
2018-03-01T10:36:20.324Z,24.33
2018-03-01T10:38:48.537Z,30.00
2018-03-01T10:41:15.976Z,28.93
2018-03-01T10:43:43.407Z,25.67
2018-03-01T10:46:10.849Z,26.60
2018-03-01T10:48:38.289Z,27.80
2018-03-01T10:51:05.724Z,28.23
2018-03-01T10:53:33.195Z,26.60
2018-03-01T10:56:00.637Z,18.67
2018-03-01T10:58:28.076Z,27.10
2018-03-01T11:00:59.457Z,25.20
2018-03-01T11:03:26.888Z,27.73
2018-03-01T11:05:54.332Z,26.27
2018-03-01T11:08:22.526Z,25.47
2018-03-01T11:10:49.953Z,27.40
2018-03-01T11:13:17.392Z,26.33
2018-03-01T11:15:44.867Z,23.60
2018-03-01T11:18:12.309Z,25.10
2018-03-01T11:20:39.773Z,24.73
2018-03-01T11:23:07.197Z,27.13
2018-03-01T11:25:34.644Z,28.23
2018-03-01T11:28:02.076Z,24.50
2018-03-01T11:30:29.522Z,27.00
2018-03-01T11:32:56.956Z,23.23
2018-03-01T11:35:24.389Z,23.20
2018-03-01T11:37:51.828Z,25.50
2018-03-01T11:40:19.260Z,25.97
2018-03-01T11:42:46.716Z,26.87
2018-03-01T11:45:14.157Z,26.13
2018-03-01T11:47:41.593Z,32.30
2018-03-01T11:50:09.016Z,28.33
2018-03-01T11:52:36.440Z,27.37
2018-03-01T11:55:04.654Z,24.10
2018-03-01T11:57:32.076Z,25.10
2018-03-01T11:59:59.492Z,23.87
2018-03-01T12:02:26.920Z,23.53
2018-03-01T12:04:55.112Z,25.30
2018-03-01T12:07:22.536Z,27.47
2018-03-01T12:09:49.956Z,25.70
2018-03-01T12:12:18.165Z,28.10
2018-03-01T12:14:45.584Z,29.07
2018-03-01T12:17:13.024Z,26.40
2018-03-01T12:19:40.450Z,24.57
2018-03-01T12:22:08.652Z,26.97
2018-03-01T12:24:36.077Z,26.20
2018-03-01T12:27:03.511Z,24.67
2018-03-01T12:29:30.944Z,27.17
2018-03-01T12:31:58.378Z,25.97
2018-03-01T12:34:26.559Z,24.20
2018-03-01T12:36:53.994Z,24.67
2018-03-01T12:39:21.400Z,23.90
2018-03-01T12:41:49.595Z,28.90
2018-03-01T12:44:17.029Z,26.50
2018-03-01T12:46:44.448Z,25.40
2018-03-01T12:49:12.657Z,24.97
2018-03-01T12:51:40.094Z,25.30
2018-03-01T12:54:07.520Z,24.77
2018-03-01T12:56:34.940Z,24.73
2018-03-01T12:59:02.374Z,26.53
2018-03-01T13:01:29.783Z,25.60
2018-03-01T13:03:57.228Z,26.83
2018-03-01T13:06:24.664Z,25.83
2018-03-01T13:08:52.085Z,25.67
2018-03-01T13:11:19.536Z,26.97
2018-03-01T13:13:46.961Z,26.13
2018-03-01T13:16:14.414Z,26.87
2018-03-01T13:18:41.841Z,29.83
2018-03-01T13:21:09.268Z,27.87
2018-03-01T13:23:36.692Z,26.67
2018-03-01T13:26:04.890Z,26.43
2018-03-01T13:28:32.309Z,24.97
2018-03-01T13:31:01.336Z,28.80
2018-03-01T13:33:32.420Z,24.90
2018-03-01T13:36:00.637Z,25.17
2018-03-01T13:38:28.065Z,28.37
2018-03-01T13:40:55.493Z,27.47
2018-03-01T13:43:23.353Z,24.90
2018-03-01T13:45:52.001Z,24.60
2018-03-01T13:48:19.437Z,27.67
2018-03-01T13:50:46.859Z,27.30
2018-03-01T13:53:14.292Z,32.17
2018-03-01T13:55:41.716Z,27.10
2018-03-01T13:58:09.916Z,25.60
2018-03-01T14:00:37.341Z,24.40
2018-03-01T14:03:04.771Z,26.57
2018-03-01T14:05:32.969Z,28.07
2018-03-01T14:08:00.388Z,30.77
2018-03-01T14:10:27.816Z,26.83
2018-03-01T14:16:05.228Z,25.43
2018-03-01T14:18:38.713Z,24.63
2018-03-01T14:24:18.221Z,29.67
2018-03-01T14:27:00.530Z,25.57
2018-03-01T14:29:31.373Z,29.90
2018-03-01T14:31:58.812Z,26.20
2018-03-01T14:34:26.229Z,23.77
2018-03-01T14:36:53.659Z,22.30
2018-03-01T14:39:21.080Z,26.47
2018-03-01T14:41:48.512Z,29.17
2018-03-01T14:44:16.713Z,28.37
2018-03-01T14:46:44.131Z,25.43
2018-03-01T14:49:11.561Z,26.77
2018-03-01T14:51:38.991Z,27.47
2018-03-01T14:54:07.196Z,33.90
2018-03-01T14:56:34.621Z,29.53
2018-03-01T14:59:02.050Z,25.87
2018-03-01T15:01:29.465Z,26.73
2018-03-01T15:03:57.686Z,29.70
2018-03-01T15:06:25.110Z,30.77
2018-03-01T15:08:52.557Z,31.03
2018-03-01T15:11:19.981Z,28.03
2018-03-01T15:13:47.400Z,28.23
2018-03-01T15:16:15.596Z,27.30
2018-03-01T15:18:43.020Z,29.00
2018-03-01T15:21:10.456Z,32.47
2018-03-01T15:23:37.880Z,25.63
2018-03-01T15:26:06.090Z,27.67
2018-03-01T15:28:33.507Z,30.97
2018-03-01T15:31:00.936Z,29.87
2018-03-01T15:33:28.364Z,31.50
2018-03-01T15:35:56.584Z,29.27
2018-03-01T15:38:24.012Z,30.37
2018-03-01T15:40:51.457Z,27.20
2018-03-01T15:43:18.876Z,24.63
2018-03-01T15:45:46.304Z,28.93
2018-03-01T15:48:13.749Z,31.77
2018-03-01T15:50:41.199Z,28.97
2018-03-01T15:53:08.616Z,31.03
2018-03-01T15:55:36.824Z,29.03
2018-03-01T15:58:04.258Z,27.67
2018-03-01T16:00:31.694Z,26.47
2018-03-01T16:02:59.124Z,34.33
2018-03-01T16:05:26.557Z,27.97
2018-03-01T16:07:53.982Z,27.43
2018-03-01T16:10:22.181Z,27.07
2018-03-01T16:12:49.660Z,27.67
2018-03-01T16:15:17.108Z,28.50
2018-03-01T16:17:44.623Z,28.07
2018-03-01T16:20:12.071Z,27.60
2018-03-01T16:22:39.496Z,28.77
2018-03-01T16:25:06.920Z,25.73
2018-03-01T16:27:34.343Z,32.13
2018-03-01T16:30:01.788Z,30.27
2018-03-01T16:32:29.232Z,29.53
2018-03-01T16:34:56.669Z,30.00
2018-03-01T16:37:24.100Z,29.47
2018-03-01T16:39:52.306Z,31.43
2018-03-01T16:42:19.749Z,33.20
2018-03-01T16:44:47.182Z,28.17
2018-03-01T16:47:14.628Z,28.90
2018-03-01T16:49:42.061Z,24.83
2018-03-01T16:52:09.494Z,32.37
2018-03-01T16:54:36.926Z,33.27
2018-03-01T16:57:04.360Z,26.80
2018-03-01T16:59:31.808Z,31.37
2018-03-01T17:01:59.239Z,29.57
2018-03-01T17:04:26.675Z,26.10
2018-03-01T17:06:54.880Z,25.40
2018-03-01T17:09:22.307Z,29.33
2018-03-01T17:11:49.768Z,29.37
2018-03-01T17:14:17.194Z,29.83
2018-03-01T17:16:44.644Z,31.20
2018-03-01T17:19:12.092Z,28.37
2018-03-01T17:21:39.544Z,30.83
2018-03-01T17:24:06.973Z,25.23
2018-03-01T17:26:34.413Z,28.17
2018-03-01T17:29:01.857Z,26.83
2018-03-01T17:31:29.297Z,31.13
2018-03-01T17:33:56.736Z,28.47
2018-03-01T17:36:24.181Z,26.40
2018-03-01T17:38:51.624Z,27.53
2018-03-01T17:41:19.064Z,28.43
2018-03-01T17:43:46.501Z,29.43
2018-03-01T17:46:13.957Z,28.33
2018-03-01T17:48:41.384Z,31.67
2018-03-01T17:51:08.825Z,32.47
2018-03-01T17:53:36.248Z,29.13
2018-03-01T17:56:03.679Z,28.93
2018-03-01T17:58:31.113Z,28.50
2018-03-01T18:00:58.547Z,29.80
2018-03-01T18:03:26.005Z,29.03
2018-03-01T18:05:53.431Z,27.77
2018-03-01T18:08:21.631Z,30.43
2018-03-01T18:10:49.084Z,33.73
2018-03-01T18:13:16.528Z,29.53
2018-03-01T18:15:43.978Z,29.53
2018-03-01T18:18:11.413Z,28.47
2018-03-01T18:20:38.841Z,26.17
2018-03-01T18:23:06.286Z,29.33
2018-03-01T18:25:33.722Z,31.90
2018-03-01T18:28:01.185Z,31.47
2018-03-01T18:30:28.625Z,29.00
2018-03-01T18:32:56.052Z,33.90
2018-03-01T18:35:23.489Z,28.97
2018-03-01T18:37:50.928Z,30.10
2018-03-01T18:40:18.384Z,30.53
2018-03-01T18:42:45.821Z,27.10
2018-03-01T18:45:13.276Z,33.40
2018-03-01T18:47:40.741Z,33.23
2018-03-01T18:50:08.128Z,35.57
2018-03-01T18:52:35.560Z,34.10
2018-03-01T18:55:03.027Z,28.70
2018-03-01T18:57:30.441Z,28.47
2018-03-01T18:59:57.888Z,27.67
2018-03-01T19:02:25.328Z,29.00
2018-03-01T19:04:52.762Z,31.43
2018-03-01T19:07:20.225Z,27.90
2018-03-01T19:09:48.296Z,28.87
2018-03-01T19:12:15.751Z,31.33
2018-03-01T19:14:43.211Z,30.67
2018-03-01T19:17:10.680Z,30.57
2018-03-01T19:19:38.117Z,35.57
2018-03-01T19:22:05.553Z,30.03
2018-03-01T19:24:33.764Z,30.83
2018-03-01T19:27:01.217Z,31.37
2018-03-01T19:29:28.656Z,29.47
2018-03-01T19:31:56.077Z,29.60
2018-03-01T19:34:23.519Z,30.90
2018-03-01T19:36:50.960Z,31.80
2018-03-01T19:39:18.388Z,29.73
2018-03-01T19:41:45.820Z,27.67
2018-03-01T19:44:14.217Z,34.47
2018-03-01T19:46:41.663Z,35.53
2018-03-01T19:49:09.090Z,33.53
2018-03-01T19:51:36.543Z,27.37
2018-03-01T19:54:03.977Z,30.30
2018-03-01T19:56:31.436Z,28.50
2018-03-01T19:58:58.893Z,30.17
2018-03-01T20:01:26.356Z,30.93
2018-03-01T20:03:54.549Z,31.47
2018-03-01T20:06:21.980Z,27.90
2018-03-01T20:08:49.413Z,35.00
2018-03-01T20:11:16.870Z,30.60
2018-03-01T20:13:44.305Z,28.67
2018-03-01T20:16:11.719Z,32.13
2018-03-01T20:18:39.936Z,31.23
2018-03-01T20:21:07.383Z,34.83
2018-03-01T20:23:34.828Z,31.77
2018-03-01T20:26:02.257Z,29.10
2018-03-01T20:28:29.696Z,30.80
2018-03-01T20:30:57.128Z,31.30
2018-03-01T20:33:24.560Z,32.83
2018-03-01T20:35:52.027Z,29.20
2018-03-01T20:38:19.472Z,31.90
2018-03-01T20:40:46.912Z,32.77
2018-03-01T20:43:14.364Z,33.23
2018-03-01T20:45:41.819Z,30.97
2018-03-01T20:48:09.285Z,33.30
2018-03-01T20:50:37.504Z,31.37
2018-03-01T20:53:04.965Z,37.60
2018-03-01T20:55:33.927Z,33.60
2018-03-01T20:58:01.364Z,33.63
2018-03-01T21:00:28.827Z,37.30
2018-03-01T21:02:56.295Z,33.43
2018-03-01T21:05:24.492Z,33.87
2018-03-01T21:07:51.947Z,34.93
2018-03-01T21:10:19.412Z,33.27
2018-03-01T21:12:46.839Z,29.97
2018-03-01T21:15:15.074Z,31.57
2018-03-01T21:17:42.505Z,33.50
2018-03-01T21:20:09.969Z,32.77
2018-03-01T21:22:37.428Z,35.43
2018-03-01T21:25:04.876Z,30.80
2018-03-01T21:27:32.328Z,33.63
2018-03-01T21:30:00.369Z,32.63
2018-03-01T21:32:27.827Z,35.37
2018-03-01T21:34:55.257Z,32.33
2018-03-01T21:37:22.698Z,33.57
2018-03-01T21:39:50.948Z,35.57
2018-03-01T21:42:18.595Z,32.47
2018-03-01T21:44:46.097Z,36.87
2018-03-01T21:47:13.506Z,33.70
2018-03-01T21:49:41.740Z,36.13
2018-03-01T21:52:09.176Z,36.10
2018-03-01T21:54:36.627Z,40.60
2018-03-01T21:57:04.065Z,34.20
2018-03-01T21:59:31.524Z,37.37
2018-03-01T22:01:58.952Z,39.47
2018-03-01T22:04:26.391Z,37.70
2018-03-01T22:06:53.832Z,33.40
2018-03-01T22:09:21.272Z,35.90
2018-03-01T22:11:48.723Z,39.37
2018-03-01T22:14:16.160Z,34.67
2018-03-01T22:16:43.597Z,34.70
2018-03-01T22:19:11.037Z,37.67
2018-03-01T22:21:38.475Z,32.63
2018-03-01T22:24:05.929Z,36.73
2018-03-01T22:26:33.375Z,37.97
2018-03-01T22:29:00.821Z,36.20
2018-03-01T22:31:28.245Z,38.83
2018-03-01T22:33:55.700Z,43.17
2018-03-01T22:36:23.150Z,37.83
2018-03-01T22:38:50.588Z,34.07
2018-03-01T22:41:18.039Z,38.13
2018-03-01T22:43:45.483Z,36.33
2018-03-01T22:46:12.905Z,32.50
2018-03-01T22:48:40.340Z,38.40
2018-03-01T22:51:07.792Z,37.47
2018-03-01T22:53:35.325Z,35.50
2018-03-01T22:56:02.775Z,35.17
2018-03-01T22:58:30.199Z,36.60
2018-03-01T23:00:57.648Z,36.27
2018-03-01T23:03:25.084Z,40.20
2018-03-01T23:05:52.544Z,36.83
2018-03-01T23:08:20.080Z,36.67
2018-03-01T23:10:47.524Z,35.83
2018-03-01T23:13:14.971Z,36.97
2018-03-01T23:15:42.432Z,39.30
2018-03-01T23:18:10.657Z,39.20
2018-03-01T23:20:38.097Z,36.10
2018-03-01T23:23:05.529Z,45.03
2018-03-01T23:25:32.956Z,38.87
2018-03-01T23:28:00.389Z,43.17
2018-03-01T23:30:27.832Z,42.33
2018-03-01T23:32:55.289Z,39.57
2018-03-01T23:35:22.742Z,40.70
2018-03-01T23:37:50.164Z,41.53
2018-03-01T23:40:17.600Z,41.67
2018-03-01T23:42:45.029Z,39.83
2018-03-01T23:45:12.470Z,38.70
2018-03-01T23:47:39.916Z,38.30
2018-03-01T23:50:07.359Z,36.77
2018-03-01T23:52:34.788Z,41.63
2018-03-01T23:55:03.000Z,40.60
2018-03-01T23:57:30.445Z,43.87
2018-03-01T23:59:57.882Z,40.40
